Phoenix Island — 3FYF5 — position and weather

sailwx.info

Track history (hours):
 
Tides and Currents Weather Stations Pressure Air Temp Water Temp Dewpoint Dewpoint Depression Visibility Wind Speed Wind Dir Waves Ship Positions

Phoenix Island

Last reported at 2018-Feb-24 17:42 UTC. Time now 2018-Feb-25 20:10 UTC.
Position N 36°37' E 013°60'.

Length 162.9 m; beam 27 m.

Type: Cargo ship. MMSI: 356061000.

Date/timePositionNaut miles runAvg speedWind from/ knotsBaromVisibWave heightAir tempDewpointWater temp
2018-Feb-24 17:42N 36°37' E 013°60'211.7
2018-Feb-24 17:30N 36°36' E 014°03'711.4
2018-Feb-24 16:54N 36°34' E 014°11'611.2
2018-Feb-24 16:22N 36°32' E 014°18'410.9
2018-Feb-24 16:00N 36°31' E 014°22'510.8
2018-Feb-24 15:30N 36°29' E 014°29'510.5
2018-Feb-24 15:00N 36°28' E 014°35'510.1
2018-Feb-24 14:30N 36°27' E 014°41'  
2018-Feb-22 10:18N 37°47' E 024°09'7 9.6
2018-Feb-22 09:33N 37°50' E 024°18'010.6
2018-Feb-22 09:30N 37°50' E 024°18'611.4
2018-Feb-22 09:00N 37°52' E 024°25'  
2018-Feb-19 22:06N 46°14' E 030°56'910.7
2018-Feb-19 21:17N 46°22' E 030°55'311.4
2018-Feb-19 21:00N 46°26' E 030°55'611.1
2018-Feb-19 20:30N 46°31' E 030°55'5 9.2
2018-Feb-19 19:58N 46°34' E 031°02'36 9.0
2018-Feb-19 15:57N 46°38' E 031°54'4 8.9
2018-Feb-19 15:30N 46°41' E 031°56'4 8.4
2018-Feb-19 15:01N 46°45' E 031°54'4 8.7
2018-Feb-19 14:30N 46°50' E 031°55'3 5.6
2018-Feb-19 14:00N 46°51' E 031°58'0 0.5
2018-Feb-19 13:29N 46°51' E 031°59'0 0.0
2018-Feb-19 12:59N 46°51' E 031°59'0 0.0
2018-Feb-19 12:29N 46°51' E 031°59'0 0.0
2018-Feb-19 11:59N 46°51' E 031°59'0 0.0
2018-Feb-19 11:29N 46°51' E 031°59'0 0.0
2018-Feb-19 10:59N 46°51' E 031°59'0 0.0
2018-Feb-19 10:29N 46°51' E 031°59'0 0.0
2018-Feb-19 09:59N 46°51' E 031°59'0 0.0
2018-Feb-19 09:29N 46°51' E 031°59'0 0.0
2018-Feb-19 08:59N 46°51' E 031°59'0 0.0
2018-Feb-19 08:23N 46°51' E 031°59'0 0.0
2018-Feb-19 07:56N 46°51' E 031°59'0 0.0
2018-Feb-19 07:29N 46°51' E 031°59'0 0.0
2018-Feb-19 06:59N 46°51' E 031°59'0 0.0
2018-Feb-19 06:29N 46°51' E 031°59'0 0.0
2018-Feb-19 05:59N 46°51' E 031°59'0 0.0
2018-Feb-19 05:29N 46°51' E 031°59'0 0.0
2018-Feb-19 04:59N 46°51' E 031°59'0 0.0
2018-Feb-19 04:29N 46°51' E 031°59'0 0.0
2018-Feb-19 03:59N 46°51' E 031°59'0 0.0
2018-Feb-19 03:29N 46°51' E 031°59'0 0.0
2018-Feb-19 02:59N 46°51' E 031°59'0 0.0
2018-Feb-19 02:29N 46°51' E 031°59'0 0.0
2018-Feb-19 01:59N 46°51' E 031°59'0 0.0
2018-Feb-19 01:29N 46°51' E 031°59'0 0.0
2018-Feb-19 00:59N 46°51' E 031°59'0 0.0
2018-Feb-19 00:29N 46°51' E 031°59'0 0.0
2018-Feb-18 23:59N 46°51' E 031°59'0 0.0
2018-Feb-18 23:29N 46°51' E 031°59'0 0.0
2018-Feb-18 22:59N 46°51' E 031°59'0 0.0
2018-Feb-18 22:29N 46°51' E 031°59'0 0.0
2018-Feb-18 21:59N 46°51' E 031°59'0 0.0
2018-Feb-18 21:26N 46°51' E 031°59'0 0.0
2018-Feb-18 20:59N 46°51' E 031°59'0 0.0
2018-Feb-18 20:29N 46°51' E 031°59'0 0.0
2018-Feb-18 19:59N 46°51' E 031°59'0 0.0
2018-Feb-18 19:29N 46°51' E 031°59'0 0.0
2018-Feb-18 18:56N 46°51' E 031°59'0 0.0
2018-Feb-18 18:29N 46°51' E 031°59'0 0.0
2018-Feb-18 17:59N 46°51' E 031°59'0 0.0
2018-Feb-18 17:29N 46°51' E 031°59'0 0.0
2018-Feb-18 16:59N 46°51' E 031°59'0 0.0
2018-Feb-18 16:26N 46°51' E 031°59'0 0.0
2018-Feb-18 15:59N 46°51' E 031°59'0 0.0
2018-Feb-18 15:29N 46°51' E 031°59'0 0.0
2018-Feb-18 14:59N 46°51' E 031°59'0 0.0
2018-Feb-18 14:29N 46°51' E 031°59'0 0.0
2018-Feb-18 13:59N 46°51' E 031°59'0 0.0
2018-Feb-18 13:29N 46°51' E 031°59'0 0.0
2018-Feb-18 12:59N 46°51' E 031°59'0 0.0
2018-Feb-18 12:29N 46°51' E 031°59'0 0.0
2018-Feb-18 11:59N 46°51' E 031°59'0 0.0
2018-Feb-18 11:29N 46°51' E 031°59'0 0.0
2018-Feb-18 10:59N 46°51' E 031°59'0 0.0
2018-Feb-18 10:29N 46°51' E 031°59'0 0.0
2018-Feb-18 09:59N 46°51' E 031°59'0 0.0
2018-Feb-18 09:29N 46°51' E 031°59'0 0.0
2018-Feb-18 08:59N 46°51' E 031°59'0 0.0
2018-Feb-18 08:29N 46°51' E 031°59'0 0.0
2018-Feb-18 07:59N 46°51' E 031°59'0 0.0
2018-Feb-18 07:29N 46°51' E 031°59'0 0.0
2018-Feb-18 06:59N 46°51' E 031°59'0 0.0
2018-Feb-18 06:29N 46°51' E 031°59'0 0.0
2018-Feb-18 05:59N 46°51' E 031°59'0 0.0
2018-Feb-18 05:29N 46°51' E 031°59'0 0.0
2018-Feb-18 04:59N 46°51' E 031°59'0 0.0
2018-Feb-18 04:29N 46°51' E 031°59'0 0.0
2018-Feb-18 03:59N 46°51' E 031°59'0 0.0
2018-Feb-18 03:29N 46°51' E 031°59'0 0.0
2018-Feb-18 02:59N 46°51' E 031°59'0 0.0
2018-Feb-18 02:29N 46°51' E 031°59'0 0.0
2018-Feb-18 01:59N 46°51' E 031°59'0 0.0
2018-Feb-18 01:23N 46°51' E 031°59'0 0.0
2018-Feb-18 00:59N 46°51' E 031°59'0 0.0
2018-Feb-18 00:29N 46°51' E 031°59'0 0.0
2018-Feb-17 23:59N 46°51' E 031°59'0 0.0
2018-Feb-17 23:29N 46°51' E 031°59'0 0.0
2018-Feb-17 22:59N 46°51' E 031°59'0 0.0
2018-Feb-17 22:29N 46°51' E 031°59'0 0.0
2018-Feb-17 21:59N 46°51' E 031°59'0 0.0
2018-Feb-17 21:29N 46°51' E 031°59'0 0.0
2018-Feb-17 20:59N 46°51' E 031°59'0 0.0
2018-Feb-17 20:29N 46°51' E 031°59'0 0.0
2018-Feb-17 19:59N 46°51' E 031°59'0 0.0
2018-Feb-17 19:29N 46°51' E 031°59'0 0.0
2018-Feb-17 18:59N 46°51' E 031°59'0 0.0
2018-Feb-17 18:29N 46°51' E 031°59'0 0.0
2018-Feb-17 17:59N 46°51' E 031°59'0 0.0
2018-Feb-17 17:29N 46°51' E 031°59'0 0.0
2018-Feb-17 16:59N 46°51' E 031°59'0 0.0
2018-Feb-17 16:29N 46°51' E 031°59'0 0.0
2018-Feb-17 15:59N 46°51' E 031°59'0 0.0
2018-Feb-17 15:29N 46°51' E 031°59'0 0.0
2018-Feb-17 14:59N 46°51' E 031°59'0 0.0
2018-Feb-17 14:29N 46°51' E 031°59'0 0.0
2018-Feb-17 13:59N 46°51' E 031°59'0 0.0
2018-Feb-17 13:29N 46°51' E 031°59'0 0.0
2018-Feb-17 12:59N 46°51' E 031°59'0 0.0
2018-Feb-17 12:29N 46°51' E 031°59'0 0.0
2018-Feb-17 11:59N 46°51' E 031°59'0 0.0
2018-Feb-17 11:29N 46°51' E 031°59'0 0.0
2018-Feb-17 10:59N 46°51' E 031°59'0 0.0
2018-Feb-17 10:29N 46°51' E 031°59'0 0.0
2018-Feb-17 09:59N 46°51' E 031°59'0 0.0
2018-Feb-17 09:26N 46°51' E 031°59'0 0.0
2018-Feb-17 08:59N 46°51' E 031°59'0 0.0
2018-Feb-17 08:29N 46°51' E 031°59'0 0.0
2018-Feb-17 07:59N 46°51' E 031°59'0 0.1
2018-Feb-17 07:30N 46°51' E 031°59'2 4.6
2018-Feb-17 07:00N 46°50' E 031°56'4 8.2
2018-Feb-17 06:31N 46°46' E 031°53'4 8.7
2018-Feb-17 06:00N 46°42' E 031°56'5 9.3
2018-Feb-17 05:31N 46°38' E 031°54'5 9.9
2018-Feb-17 05:00N 46°36' E 031°48'510.1
2018-Feb-17 04:30N 46°36' E 031°40'510.8
2018-Feb-17 04:00N 46°34' E 031°33'5 9.4
2018-Feb-17 03:30N 46°35' E 031°26'1210.9
2018-Feb-17 02:22N 46°35' E 031°08'410.6
2018-Feb-17 02:00N 46°34' E 031°02'4 7.8
2018-Feb-17 01:30N 46°32' E 030°57'3 6.0
2018-Feb-17 01:00N 46°29' E 030°57'4 7.7
2018-Feb-17 00:30N 46°25' E 030°57'4 8.3
2018-Feb-17 00:00N 46°23' E 031°02'1 0.0
2018-Feb-16 04:22N 46°22' E 031°03'1 0.1
2018-Feb-15 10:16N 46°22' E 031°04'  
Track history (hours):
 
Tides and Currents Weather Stations Pressure Air Temp Water Temp Dewpoint Dewpoint Depression Visibility Wind Speed Wind Dir Waves Ship Positions

Phoenix Island

Last reported at 2018-Feb-24 17:42 UTC. Time now 2018-Feb-25 20:10 UTC.
Position N 36°37' E 013°60'.

Length 162.9 m; beam 27 m.

Type: Cargo ship. MMSI: 356061000.

Date/timePositionNaut miles runAvg speedWind from/ knotsBaromVisibWave heightAir tempDewpointWater temp
2018-Feb-24 17:42N 36°37' E 013°60'211.7
2018-Feb-24 17:30N 36°36' E 014°03'711.4
2018-Feb-24 16:54N 36°34' E 014°11'611.2
2018-Feb-24 16:22N 36°32' E 014°18'410.9
2018-Feb-24 16:00N 36°31' E 014°22'510.8
2018-Feb-24 15:30N 36°29' E 014°29'510.5
2018-Feb-24 15:00N 36°28' E 014°35'510.1
2018-Feb-24 14:30N 36°27' E 014°41'  
2018-Feb-22 10:18N 37°47' E 024°09'7 9.6
2018-Feb-22 09:33N 37°50' E 024°18'010.6
2018-Feb-22 09:30N 37°50' E 024°18'611.4
2018-Feb-22 09:00N 37°52' E 024°25'  
2018-Feb-19 22:06N 46°14' E 030°56'910.7
2018-Feb-19 21:17N 46°22' E 030°55'311.4
2018-Feb-19 21:00N 46°26' E 030°55'611.1
2018-Feb-19 20:30N 46°31' E 030°55'5 9.2
2018-Feb-19 19:58N 46°34' E 031°02'36 9.0
2018-Feb-19 15:57N 46°38' E 031°54'4 8.9
2018-Feb-19 15:30N 46°41' E 031°56'4 8.4
2018-Feb-19 15:01N 46°45' E 031°54'4 8.7
2018-Feb-19 14:30N 46°50' E 031°55'3 5.6
2018-Feb-19 14:00N 46°51' E 031°58'0 0.5
2018-Feb-19 13:29N 46°51' E 031°59'0 0.0
2018-Feb-19 12:59N 46°51' E 031°59'0 0.0
2018-Feb-19 12:29N 46°51' E 031°59'0 0.0
2018-Feb-19 11:59N 46°51' E 031°59'0 0.0
2018-Feb-19 11:29N 46°51' E 031°59'0 0.0
2018-Feb-19 10:59N 46°51' E 031°59'0 0.0
2018-Feb-19 10:29N 46°51' E 031°59'0 0.0
2018-Feb-19 09:59N 46°51' E 031°59'0 0.0
2018-Feb-19 09:29N 46°51' E 031°59'0 0.0
2018-Feb-19 08:59N 46°51' E 031°59'0 0.0
2018-Feb-19 08:23N 46°51' E 031°59'0 0.0
2018-Feb-19 07:56N 46°51' E 031°59'0 0.0
2018-Feb-19 07:29N 46°51' E 031°59'0 0.0
2018-Feb-19 06:59N 46°51' E 031°59'0 0.0
2018-Feb-19 06:29N 46°51' E 031°59'0 0.0
2018-Feb-19 05:59N 46°51' E 031°59'0 0.0
2018-Feb-19 05:29N 46°51' E 031°59'0 0.0
2018-Feb-19 04:59N 46°51' E 031°59'0 0.0
2018-Feb-19 04:29N 46°51' E 031°59'0 0.0
2018-Feb-19 03:59N 46°51' E 031°59'0 0.0
2018-Feb-19 03:29N 46°51' E 031°59'0 0.0
2018-Feb-19 02:59N 46°51' E 031°59'0 0.0
2018-Feb-19 02:29N 46°51' E 031°59'0 0.0
2018-Feb-19 01:59N 46°51' E 031°59'0 0.0
2018-Feb-19 01:29N 46°51' E 031°59'0 0.0
2018-Feb-19 00:59N 46°51' E 031°59'0 0.0
2018-Feb-19 00:29N 46°51' E 031°59'0 0.0
2018-Feb-18 23:59N 46°51' E 031°59'0 0.0
2018-Feb-18 23:29N 46°51' E 031°59'0 0.0
2018-Feb-18 22:59N 46°51' E 031°59'0 0.0
2018-Feb-18 22:29N 46°51' E 031°59'0 0.0
2018-Feb-18 21:59N 46°51' E 031°59'0 0.0
2018-Feb-18 21:26N 46°51' E 031°59'0 0.0
2018-Feb-18 20:59N 46°51' E 031°59'0 0.0
2018-Feb-18 20:29N 46°51' E 031°59'0 0.0
2018-Feb-18 19:59N 46°51' E 031°59'0 0.0
2018-Feb-18 19:29N 46°51' E 031°59'0 0.0
2018-Feb-18 18:56N 46°51' E 031°59'0 0.0
2018-Feb-18 18:29N 46°51' E 031°59'0 0.0
2018-Feb-18 17:59N 46°51' E 031°59'0 0.0
2018-Feb-18 17:29N 46°51' E 031°59'0 0.0
2018-Feb-18 16:59N 46°51' E 031°59'0 0.0
2018-Feb-18 16:26N 46°51' E 031°59'0 0.0
2018-Feb-18 15:59N 46°51' E 031°59'0 0.0
2018-Feb-18 15:29N 46°51' E 031°59'0 0.0
2018-Feb-18 14:59N 46°51' E 031°59'0 0.0
2018-Feb-18 14:29N 46°51' E 031°59'0 0.0
2018-Feb-18 13:59N 46°51' E 031°59'0 0.0
2018-Feb-18 13:29N 46°51' E 031°59'0 0.0
2018-Feb-18 12:59N 46°51' E 031°59'0 0.0
2018-Feb-18 12:29N 46°51' E 031°59'0 0.0
2018-Feb-18 11:59N 46°51' E 031°59'0 0.0
2018-Feb-18 11:29N 46°51' E 031°59'0 0.0
2018-Feb-18 10:59N 46°51' E 031°59'0 0.0
2018-Feb-18 10:29N 46°51' E 031°59'0 0.0
2018-Feb-18 09:59N 46°51' E 031°59'0 0.0
2018-Feb-18 09:29N 46°51' E 031°59'0 0.0
2018-Feb-18 08:59N 46°51' E 031°59'0 0.0
2018-Feb-18 08:29N 46°51' E 031°59'0 0.0
2018-Feb-18 07:59N 46°51' E 031°59'0 0.0
2018-Feb-18 07:29N 46°51' E 031°59'0 0.0
2018-Feb-18 06:59N 46°51' E 031°59'0 0.0
2018-Feb-18 06:29N 46°51' E 031°59'0 0.0
2018-Feb-18 05:59N 46°51' E 031°59'0 0.0
2018-Feb-18 05:29N 46°51' E 031°59'0 0.0
2018-Feb-18 04:59N 46°51' E 031°59'0 0.0
2018-Feb-18 04:29N 46°51' E 031°59'0 0.0
2018-Feb-18 03:59N 46°51' E 031°59'0 0.0
2018-Feb-18 03:29N 46°51' E 031°59'0 0.0
2018-Feb-18 02:59N 46°51' E 031°59'0 0.0
2018-Feb-18 02:29N 46°51' E 031°59'0 0.0
2018-Feb-18 01:59N 46°51' E 031°59'0 0.0
2018-Feb-18 01:23N 46°51' E 031°59'0 0.0
2018-Feb-18 00:59N 46°51' E 031°59'0 0.0
2018-Feb-18 00:29N 46°51' E 031°59'0 0.0
2018-Feb-17 23:59N 46°51' E 031°59'0 0.0
2018-Feb-17 23:29N 46°51' E 031°59'0 0.0
2018-Feb-17 22:59N 46°51' E 031°59'0 0.0
2018-Feb-17 22:29N 46°51' E 031°59'0 0.0
2018-Feb-17 21:59N 46°51' E 031°59'0 0.0
2018-Feb-17 21:29N 46°51' E 031°59'0 0.0
2018-Feb-17 20:59N 46°51' E 031°59'0 0.0
2018-Feb-17 20:29N 46°51' E 031°59'0 0.0
2018-Feb-17 19:59N 46°51' E 031°59'0 0.0
2018-Feb-17 19:29N 46°51' E 031°59'0 0.0
2018-Feb-17 18:59N 46°51' E 031°59'0 0.0
2018-Feb-17 18:29N 46°51' E 031°59'0 0.0
2018-Feb-17 17:59N 46°51' E 031°59'0 0.0
2018-Feb-17 17:29N 46°51' E 031°59'0 0.0
2018-Feb-17 16:59N 46°51' E 031°59'0 0.0
2018-Feb-17 16:29N 46°51' E 031°59'0 0.0
2018-Feb-17 15:59N 46°51' E 031°59'0 0.0
2018-Feb-17 15:29N 46°51' E 031°59'0 0.0
2018-Feb-17 14:59N 46°51' E 031°59'0 0.0
2018-Feb-17 14:29N 46°51' E 031°59'0 0.0
2018-Feb-17 13:59N 46°51' E 031°59'0 0.0
2018-Feb-17 13:29N 46°51' E 031°59'0 0.0
2018-Feb-17 12:59N 46°51' E 031°59'0 0.0
2018-Feb-17 12:29N 46°51' E 031°59'0 0.0
2018-Feb-17 11:59N 46°51' E 031°59'0 0.0
2018-Feb-17 11:29N 46°51' E 031°59'0 0.0
2018-Feb-17 10:59N 46°51' E 031°59'0 0.0
2018-Feb-17 10:29N 46°51' E 031°59'0 0.0
2018-Feb-17 09:59N 46°51' E 031°59'0 0.0
2018-Feb-17 09:26N 46°51' E 031°59'0 0.0
2018-Feb-17 08:59N 46°51' E 031°59'0 0.0
2018-Feb-17 08:29N 46°51' E 031°59'0 0.0
2018-Feb-17 07:59N 46°51' E 031°59'0 0.1
2018-Feb-17 07:30N 46°51' E 031°59'2 4.6
2018-Feb-17 07:00N 46°50' E 031°56'4 8.2
2018-Feb-17 06:31N 46°46' E 031°53'4 8.7
2018-Feb-17 06:00N 46°42' E 031°56'5 9.3
2018-Feb-17 05:31N 46°38' E 031°54'5 9.9
2018-Feb-17 05:00N 46°36' E 031°48'510.1
2018-Feb-17 04:30N 46°36' E 031°40'510.8
2018-Feb-17 04:00N 46°34' E 031°33'5 9.4
2018-Feb-17 03:30N 46°35' E 031°26'1210.9
2018-Feb-17 02:22N 46°35' E 031°08'410.6
2018-Feb-17 02:00N 46°34' E 031°02'4 7.8
2018-Feb-17 01:30N 46°32' E 030°57'3 6.0
2018-Feb-17 01:00N 46°29' E 030°57'4 7.7
2018-Feb-17 00:30N 46°25' E 030°57'4 8.3
2018-Feb-17 00:00N 46°23' E 031°02'1 0.0
2018-Feb-16 04:22N 46°22' E 031°03'1 0.1
2018-Feb-15 10:16N 46°22' E 031°04'  

Dump ship's entire track history